Garceno, Texas
Current Conditions -  °F | °C
As of 6:15 AM on Friday 24 Oct 2014 (Local Time) from KEBG Reporting Station
Haze Haze  
Wind Chill: 64°   Ceiling: Unl
Heat Index: 64°   Visibility: 4mi
Dew Point: 62°   Wind: 3mph
Humidity: 93%   Direction: 10°N
Pressure: 30.09"   Gusts: NA
Location:  26.5735°N, 98.695°W
Report Text: KEBG 241115Z AUTO 01003KT 4SM BR CLR 18/17 A3009 RMK AO2 T01770165
Loading
Personal Weather Stations






























Interactive Weather Map
Tropical Storm Tracking
New forecast layout! Learn more

10-Day Weather Forecast

Advertisements
Track Severe Weather on mobile